^^
Station Historical Data
Daily Summary for February 24, 2021 Units:  English    Metric   Both
Daily Weekly Monthly Yearly
  High: Low: Average:
Temperature: 39.1 °F 27.1 °F 34.5 °F
Dew Point: 33.5 °F 21.2 °F 30.1 °F
Humidity: 90% 77% 84%
Wind Speed: 11mph 0mph 4.1mph
Wind Gust: 13mph - -
Wind- - WSW
Pressure: 30.13 in 29.55 in -
Precipitation: 0.00 in    
 
 
Tabular Data for February 24, 2021
Time Temperature Dew Point Pressure Wind Wind Speed Wind Gust Humidity Rainfall Rate (Hourly) solar
00:00 31.8 °F 28.7 °F 29.84 in SSW 1 mph 2 mph 88% 0.00 in 0 W/m2
00:05 32.1 °F 28.9 °F 29.83 in WNW 2 mph 2 mph 88% 0.00 in 0 W/m2
00:10 32.1 °F 28.7 °F 29.83 in East 2 mph 3 mph 87% 0.00 in 0 W/m2
00:15 32.4 °F 29 °F 29.83 in NNW 2 mph 3 mph 87% 0.00 in 0 W/m2
00:20 32.4 °F 29 °F 29.83 in NE 3 mph 3 mph 87% 0.00 in 0 W/m2
00:25 32.4 °F 29 °F 29.83 in NNE 2 mph 3 mph 87% 0.00 in 0 W/m2
00:30 31.9 °F 28.5 °F 29.82 in North 2 mph 2 mph 87% 0.00 in 0 W/m2
00:35 31.6 °F 28.5 °F 29.82 in North 1 mph 2 mph 88% 0.00 in 0 W/m2
00:40 31.7 °F 28.6 °F 29.82 in NE 1 mph 2 mph 88% 0.00 in 0 W/m2
00:45 32.3 °F 29.1 °F 29.82 in NNW 1 mph 2 mph 88% 0.00 in 0 W/m2
00:50 32.5 °F 29.3 °F 29.83 in NNW 1 mph 1 mph 88% 0.00 in 0 W/m2
00:55 32.5 °F 29.3 °F 29.83 in NNW 1 mph 1 mph 88% 0.00 in 0 W/m2
01:00 32.5 °F 29.3 °F 29.84 in NW 1 mph 1 mph 88% 0.00 in 0 W/m2
01:05 32.5 °F 29.3 °F 29.84 in NW 1 mph 1 mph 88% 0.00 in 0 W/m2
01:10 32.4 °F 29.2 °F 29.84 in NW 1 mph 1 mph 88% 0.00 in 0 W/m2
01:15 32.3 °F 29.1 °F 29.84 in Calm   1 mph 88% 0.00 in 0 W/m2
01:20 32.3 °F 29.1 °F 29.84 in Calm   1 mph 88% 0.00 in 0 W/m2
01:25 32.3 °F 29.4 °F 29.84 in Calm   1 mph 89% 0.00 in 0 W/m2
01:30 32.3 °F 29.4 °F 29.83 in Calm   1 mph 89% 0.00 in 0 W/m2
01:35 32.4 °F 29.5 °F 29.83 in Calm   1 mph 89% 0.00 in 0 W/m2
01:40 32.5 °F 29.6 °F 29.83 in NW 1 mph 1 mph 89% 0.00 in 0 W/m2
01:45 33 °F 30.1 °F 29.83 in NE 1 mph 1 mph 89% 0.00 in 0 W/m2
01:50 33.5 °F 30.6 °F 29.83 in NNW 1 mph 1 mph 89% 0.00 in 0 W/m2
01:55 33.6 °F 30.4 °F 29.82 in NNW 1 mph 1 mph 88% 0.00 in 0 W/m2
02:00 33.7 °F 30.5 °F 29.82 in NNW 1 mph 2 mph 88% 0.00 in 0 W/m2
02:05 33.8 °F 30.6 °F 29.83 in NNW 1 mph 2 mph 88% 0.00 in 0 W/m2
02:10 33.7 °F 30.5 °F 29.84 in Calm     88% 0.00 in 0 W/m2
02:15 33.6 °F 30.4 °F 29.84 in Calm   1 mph 88% 0.00 in 0 W/m2
02:20 33.6 °F 30.4 °F 29.85 in Calm     88% 0.00 in 0 W/m2
02:25 33.5 °F 30.6 °F 29.85 in Calm   2 mph 89% 0.00 in 0 W/m2
02:30 33.5 °F 30.6 °F 29.85 in NNW 1 mph 1 mph 89% 0.00 in 0 W/m2
02:35 33.5 °F 30.6 °F 29.85 in NNW 1 mph 1 mph 89% 0.00 in 0 W/m2
02:40 33.5 °F 30.6 °F 29.85 in NNW 1 mph 2 mph 89% 0.00 in 0 W/m2
02:45 33.4 °F 30.5 °F 29.85 in NNW 1 mph 2 mph 89% 0.00 in 0 W/m2
02:50 33.3 °F 30.4 °F 29.84 in NNW 1 mph 1 mph 89% 0.00 in 0 W/m2
02:55 33.2 °F 30.3 °F 29.84 in Calm   1 mph 89% 0.00 in 0 W/m2
03:00 33.2 °F 30.3 °F 29.84 in Calm   1 mph 89% 0.00 in 0 W/m2
03:05 33.2 °F 30.6 °F 29.83 in Calm   1 mph 90% 0.00 in 0 W/m2
03:10 33.2 °F 30.6 °F 29.83 in NNW 1 mph 1 mph 90% 0.00 in 0 W/m2
03:15 33.2 °F 30.6 °F 29.82 in NNE 1 mph 2 mph 90% 0.00 in 0 W/m2
03:20 33.3 °F 30.7 °F 29.82 in NNE 1 mph 2 mph 90% 0.00 in 0 W/m2
03:25 33.2 °F 30.6 °F 29.82 in NNE 1 mph 2 mph 90% 0.00 in 0 W/m2
03:30 33.3 °F 30.7 °F 29.81 in SE 2 mph 3 mph 90% 0.00 in 0 W/m2
03:35 33.3 °F 30.7 °F 29.80 in SE 3 mph 3 mph 90% 0.00 in 0 W/m2
03:40 33.4 °F 30.8 °F 29.80 in SE 3 mph 3 mph 90% 0.00 in 0 W/m2
03:45 33.4 °F 30.8 °F 29.80 in SE 2 mph 3 mph 90% 0.00 in 0 W/m2
03:50 33.4 °F 30.8 °F 29.79 in SE 2 mph 2 mph 90% 0.00 in 0 W/m2
03:55 33.3 °F 30.7 °F 29.78 in SE 1 mph 2 mph 90% 0.00 in 0 W/m2
04:00 33.3 °F 30.7 °F 29.78 in SE 2 mph 2 mph 90% 0.00 in 0 W/m2
04:05 33.3 °F 30.7 °F 29.78 in SE 2 mph 2 mph 90% 0.00 in 0 W/m2
04:10 33.4 °F 30.8 °F 29.77 in SE 2 mph 2 mph 90% 0.00 in 0 W/m2
04:15 33.5 °F 30.9 °F 29.77 in SE 2 mph 3 mph 90% 0.00 in 0 W/m2
04:20 33.6 °F 31 °F 29.76 in SE 3 mph 3 mph 90% 0.00 in 0 W/m2
04:25 33.6 °F 31 °F 29.76 in SE 3 mph 3 mph 90% 0.00 in 0 W/m2
04:30 33.5 °F 30.9 °F 29.76 in SE 3 mph 3 mph 90% 0.00 in 0 W/m2
04:35 33.4 °F 30.8 °F 29.75 in ESE 3 mph 3 mph 90% 0.00 in 0 W/m2
04:40 33.4 °F 30.8 °F 29.75 in SE 3 mph 4 mph 90% 0.00 in 0 W/m2
04:45 33.4 °F 30.5 °F 29.75 in SE 3 mph 4 mph 89% 0.00 in 0 W/m2
04:50 33.3 °F 30.4 °F 29.75 in SE 3 mph 3 mph 89% 0.00 in 0 W/m2
04:55 33.3 °F 30.4 °F 29.75 in SE 3 mph 3 mph 89% 0.00 in 0 W/m2
05:00 33.3 °F 30.4 °F 29.74 in SE 3 mph 3 mph 89% 0.00 in 0 W/m2
05:05 33.4 °F 30.5 °F 29.74 in ESE 3 mph 3 mph 89% 0.00 in 0 W/m2
05:10 33.5 °F 30.9 °F 29.73 in ESE 3 mph 4 mph 90% 0.00 in 0 W/m2
05:15 33.7 °F 30.8 °F 29.72 in SE 3 mph 4 mph 89% 0.00 in 0 W/m2
05:20 33.7 °F 30.8 °F 29.71 in SE 3 mph 4 mph 89% 0.00 in 0 W/m2
05:25 33.7 °F 30.8 °F 29.71 in SSE 4 mph 4 mph 89% 0.00 in 0 W/m2
05:30 33.7 °F 30.8 °F 29.71 in SSE 3 mph 3 mph 89% 0.00 in 0 W/m2
05:35 33.8 °F 30.9 °F 29.71 in SSE 3 mph 3 mph 89% 0.00 in 0 W/m2
05:40 33.8 °F 30.6 °F 29.70 in SE 2 mph 2 mph 88% 0.00 in 0 W/m2
05:45 33.8 °F 30.6 °F 29.68 in ESE 2 mph 4 mph 88% 0.00 in 0 W/m2
05:50 33.8 °F 30.6 °F 29.67 in ESE 3 mph 4 mph 88% 0.00 in 0 W/m2
05:55 34 °F 30.8 °F 29.67 in ESE 3 mph 4 mph 88% 0.00 in 0 W/m2
06:00 34.1 °F 30.6 °F 29.67 in ESE 3 mph 3 mph 87% 0.00 in 0 W/m2
06:05 34.4 °F 30.9 °F 29.69 in ESE 3 mph 3 mph 87% 0.00 in 0 W/m2
06:10 34.4 °F 30.6 °F 29.68 in ESE 3 mph 3 mph 86% 0.00 in 0 W/m2
06:15 34.5 °F 30.7 °F 29.67 in ESE 3 mph 3 mph 86% 0.00 in 0 W/m2
06:20 34.4 °F 30.6 °F 29.66 in SE 3 mph 3 mph 86% 0.00 in 0 W/m2
06:25 34.4 °F 30.6 °F 29.66 in SE 4 mph 4 mph 86% 0.00 in 0 W/m2
06:30 34.4 °F 30.6 °F 29.64 in SE 4 mph 4 mph 86% 0.00 in 0 W/m2
06:35 34.3 °F 30.5 °F 29.64 in SE 3 mph 4 mph 86% 0.00 in 0 W/m2
06:40 34.3 °F 30.5 °F 29.64 in SE 2 mph 2 mph 86% 0.00 in 0 W/m2
06:45 34.3 °F 30.5 °F 29.64 in SE 2 mph 2 mph 86% 0.00 in 0 W/m2
06:50 34.2 °F 30.4 °F 29.63 in SE 2 mph 3 mph 86% 0.00 in 0 W/m2
06:55 34.2 °F 30.4 °F 29.63 in SE 2 mph 3 mph 86% 0.00 in 0 W/m2
07:00 34.1 °F 30.4 °F 29.63 in SE 3 mph 3 mph 86% 0.00 in 0 W/m2
07:05 34.1 °F 30.4 °F 29.62 in SE 3 mph 3 mph 86% 0.00 in 0 W/m2
07:10 34 °F 30.5 °F 29.62 in SE 3 mph 3 mph 87% 0.00 in 0 W/m2
07:15 33.9 °F 30.4 °F 29.63 in SE 2 mph 3 mph 87% 0.00 in 0 W/m2
07:20 33.9 °F 30.4 °F 29.63 in SSE 2 mph 4 mph 87% 0.00 in 0 W/m2
07:25 34 °F 30.5 °F 29.63 in NNW 2 mph 4 mph 87% 0.00 in 5 W/m2
07:30 34.6 °F 31.1 °F 29.62 in North 2 mph 3 mph 87% 0.00 in 7 W/m2
07:35 34.8 °F 31 °F 29.62 in NNW 3 mph 3 mph 86% 0.00 in 12 W/m2
07:40 34.7 °F 30.9 °F 29.61 in NW 2 mph 2 mph 86% 0.00 in 16 W/m2
07:45 34.8 °F 31 °F 29.60 in NW 3 mph 3 mph 86% 0.00 in 19 W/m2
07:50 34.8 °F 31 °F 29.60 in NW 3 mph 3 mph 86% 0.00 in 19 W/m2
07:55 34.7 °F 30.9 °F 29.59 in NNW 3 mph 3 mph 86% 0.00 in 25 W/m2
08:00 34.7 °F 31.2 °F 29.59 in NNE 3 mph 5 mph 87% 0.00 in 30 W/m2
08:05 34.9 °F 31.1 °F 29.59 in NE 4 mph 5 mph 86% 0.00 in 32 W/m2
08:10 34.9 °F 31.1 °F 29.59 in NNW 4 mph 4 mph 86% 0.00 in 35 W/m2
08:15 35 °F 31.2 °F 29.59 in North 3 mph 4 mph 86% 0.00 in 42 W/m2
08:20 35 °F 31.2 °F 29.59 in NE 3 mph 3 mph 86% 0.00 in 49 W/m2
08:30 35.3 °F 31.2 °F 29.59 in NE 3 mph 3 mph 85% 0.00 in 62 W/m2
08:35 35.6 °F 31.5 °F 29.59 in North 4 mph 4 mph 85% 0.00 in 77 W/m2
08:40 35.8 °F 31.4 °F 29.59 in NW 4 mph 4 mph 84% 0.00 in 83 W/m2
08:45 35.7 °F 31.3 °F 29.59 in North 3 mph 4 mph 84% 0.00 in 86 W/m2
08:50 35.7 °F 31.3 °F 29.58 in NNW 3 mph 3 mph 84% 0.00 in 79 W/m2
08:55 35.6 °F 31.2 °F 29.58 in NNW 3 mph 3 mph 84% 0.00 in 77 W/m2
09:00 35.8 °F 31.4 °F 29.58 in NNW 3 mph 3 mph 84% 0.00 in 84 W/m2
09:05 35.8 °F 31.4 °F 29.58 in NNW 3 mph 3 mph 84% 0.00 in 98 W/m2
09:10 36 °F 31.6 °F 29.58 in NE 3 mph 3 mph 84% 0.00 in 113 W/m2
09:15 36.1 °F 31.4 °F 29.57 in NNW 3 mph 3 mph 83% 0.00 in 127 W/m2
09:20 36 °F 31.3 °F 29.57 in NNW 3 mph 3 mph 83% 0.00 in 142 W/m2
09:25 35.7 °F 31.3 °F 29.57 in NE 3 mph 3 mph 84% 0.00 in 151 W/m2
09:30 35.5 °F 31.4 °F 29.57 in North 3 mph 3 mph 85% 0.00 in 139 W/m2
09:35 35.7 °F 31.6 °F 29.57 in West 3 mph 3 mph 85% 0.00 in 132 W/m2
09:40 36 °F 31.6 °F 29.56 in East 3 mph 3 mph 84% 0.00 in 128 W/m2
09:45 36.3 °F 31.9 °F 29.56 in SSW 3 mph 4 mph 84% 0.00 in 134 W/m2
09:50 36.4 °F 31.7 °F 29.56 in NNW 3 mph 4 mph 83% 0.00 in 134 W/m2
09:55 36.4 °F 31.7 °F 29.55 in NNE 4 mph 4 mph 83% 0.00 in 127 W/m2
10:00 36.2 °F 31.5 °F 29.55 in East 3 mph 3 mph 83% 0.00 in 153 W/m2
10:05 36.4 °F 31.7 °F 29.55 in SW 3 mph 4 mph 83% 0.00 in 193 W/m2
10:10 37 °F 32.3 °F 29.55 in South 4 mph 4 mph 83% 0.00 in 241 W/m2
10:15 37.9 °F 32.6 °F 29.55 in South 6 mph 10 mph 81% 0.00 in 265 W/m2
10:20 38.6 °F 32.6 °F 29.55 in SSW 8 mph 11 mph 79% 0.00 in 304 W/m2
10:25 39.1 °F 32.8 °F 29.55 in South 10 mph 11 mph 78% 0.00 in 329 W/m2
10:30 39 °F 32.7 °F 29.55 in SSW 11 mph 11 mph 78% 0.00 in 330 W/m2
10:35 38.9 °F 32.6 °F 29.55 in WSW 11 mph 13 mph 78% 0.00 in 380 W/m2
10:40 38.9 °F 32.6 °F 29.55 in SW 11 mph 11 mph 78% 0.00 in 392 W/m2
10:45 38.9 °F 32.6 °F 29.55 in SW 10 mph 11 mph 78% 0.00 in 394 W/m2
10:50 39 °F 32.7 °F 29.55 in SW 11 mph 12 mph 78% 0.00 in 519 W/m2
10:55 38.8 °F 32.5 °F 29.55 in SSW 10 mph 12 mph 78% 0.00 in 325 W/m2
11:00 38.6 °F 32.6 °F 29.55 in SSW 10 mph 10 mph 79% 0.00 in 330 W/m2
11:05 38.6 °F 32.6 °F 29.55 in SW 9 mph 10 mph 79% 0.00 in 325 W/m2
11:10 38.4 °F 32.5 °F 29.55 in SW 9 mph 9 mph 79% 0.00 in 329 W/m2
11:15 38.2 °F 32.6 °F 29.55 in SW 9 mph 9 mph 80% 0.00 in 346 W/m2
11:20 38 °F 32.4 °F 29.55 in WSW 9 mph 11 mph 80% 0.00 in 343 W/m2
11:25 37.6 °F 32.3 °F 29.55 in SW 8 mph 11 mph 81% 0.00 in 323 W/m2
11:30 37.4 °F 32.1 °F 29.55 in SW 7 mph 7 mph 81% 0.00 in 315 W/m2
11:35 37.3 °F 32.3 °F 29.55 in SW 7 mph 7 mph 82% 0.00 in 302 W/m2
11:40 37 °F 32 °F 29.55 in WSW 6 mph 9 mph 82% 0.00 in 274 W/m2
11:45 36.7 °F 32 °F 29.56 in SW 5 mph 9 mph 83% 0.00 in 271 W/m2
11:50 36.6 °F 31.9 °F 29.56 in WSW 5 mph 5 mph 83% 0.00 in 262 W/m2
11:55 36.5 °F 31.8 °F 29.56 in SSW 5 mph 5 mph 83% 0.00 in 301 W/m2
12:00 36.5 °F 32.1 °F 29.56 in WNW 6 mph 6 mph 84% 0.00 in 522 W/m2
12:05 36.6 °F 32.2 °F 29.56 in South 6 mph 6 mph 84% 0.00 in 374 W/m2
12:10 36.8 °F 32.4 °F 29.56 in West 6 mph 8 mph 84% 0.00 in 355 W/m2
12:15 36.8 °F 32.4 °F 29.56 in WSW 6 mph 8 mph 84% 0.00 in 348 W/m2
12:20 36.8 °F 32.1 °F 29.57 in SW 5 mph 5 mph 83% 0.00 in 304 W/m2
12:25 36.9 °F 32.5 °F 29.57 in West 4 mph 5 mph 84% 0.00 in 341 W/m2
12:30 37 °F 32.6 °F 29.57 in West 3 mph 7 mph 84% 0.00 in 613 W/m2
12:35 37.2 °F 32.5 °F 29.57 in SW 3 mph 7 mph 83% 0.00 in 227 W/m2
12:40 37.5 °F 32.8 °F 29.57 in WNW 4 mph 4 mph 83% 0.00 in 325 W/m2
12:45 38.2 °F 33.2 °F 29.57 in WNW 4 mph 4 mph 82% 0.00 in 392 W/m2
12:50 37.9 °F 32.9 °F 29.57 in SW 5 mph 5 mph 82% 0.00 in 362 W/m2
12:55 37.9 °F 32.9 °F 29.57 in West 6 mph 6 mph 82% 0.00 in 309 W/m2
13:00 37.9 °F 32.9 °F 29.58 in SW 6 mph 7 mph 82% 0.00 in 292 W/m2
13:05 38.5 °F 33.2 °F 29.57 in SSW 6 mph 7 mph 81% 0.00 in 288 W/m2
13:10 38.4 °F 33.1 °F 29.57 in West 5 mph 5 mph 81% 0.00 in 304 W/m2
13:15 38.3 °F 33 °F 29.57 in West 4 mph 6 mph 81% 0.00 in 292 W/m2
13:20 38.2 °F 32.9 °F 29.58 in West 4 mph 6 mph 81% 0.00 in 202 W/m2
13:25 38.1 °F 33.1 °F 29.58 in West 4 mph 6 mph 82% 0.00 in 169 W/m2
13:30 37.9 °F 32.9 °F 29.58 in WSW 4 mph 7 mph 82% 0.00 in 151 W/m2
13:35 38.2 °F 32.9 °F 29.58 in West 4 mph 12 mph 81% 0.00 in 149 W/m2
13:40 38.4 °F 33.1 °F 29.58 in WSW 5 mph 5 mph 81% 0.00 in 162 W/m2
13:45 38.5 °F 33.2 °F 29.58 in West 5 mph 11 mph 81% 0.00 in 135 W/m2
13:50 38.9 °F 33.3 °F 29.59 in West 5 mph 6 mph 80% 0.00 in 123 W/m2
13:55 38.9 °F 33.3 °F 29.59 in WSW 5 mph 9 mph 80% 0.00 in 116 W/m2
14:00 38.8 °F 33.5 °F 29.59 in NW 5 mph 9 mph 81% 0.00 in 121 W/m2
14:05 38.8 °F 33.5 °F 29.59 in West 5 mph 9 mph 81% 0.00 in 118 W/m2
14:10 38.7 °F 33.4 °F 29.60 in WNW 6 mph 6 mph 81% 0.00 in 113 W/m2
14:15 38.7 °F 33.4 °F 29.60 in NNW 6 mph 6 mph 81% 0.00 in 95 W/m2
14:20 38.6 °F 33.3 °F 29.60 in WNW 6 mph 6 mph 81% 0.00 in 114 W/m2
14:25 38.6 °F 33.3 °F 29.60 in WNW 6 mph 6 mph 81% 0.00 in 111 W/m2
14:30 38.5 °F 33.2 °F 29.61 in WNW 5 mph 5 mph 81% 0.00 in 121 W/m2
14:35 38.5 °F 33.2 °F 29.61 in WNW 5 mph 5 mph 81% 0.00 in 118 W/m2
14:40 38.4 °F 33.1 °F 29.62 in North 6 mph 6 mph 81% 0.00 in 105 W/m2
14:45 38.4 °F 33.4 °F 29.62 in WNW 5 mph 7 mph 82% 0.00 in 98 W/m2
14:50 38.3 °F 33.3 °F 29.63 in West 5 mph 5 mph 82% 0.00 in 81 W/m2
14:55 38 °F 33 °F 29.63 in WNW 6 mph 10 mph 82% 0.00 in 76 W/m2
15:00 37.9 °F 32.9 °F 29.64 in WNW 5 mph 9 mph 82% 0.00 in 63 W/m2
15:05 37.7 °F 33 °F 29.64 in NW 5 mph 12 mph 83% 0.00 in 60 W/m2
15:10 37.8 °F 32.8 °F 29.65 in NW 7 mph 10 mph 82% 0.00 in 63 W/m2
15:15 37.8 °F 32.8 °F 29.65 in West 7 mph 10 mph 82% 0.00 in 67 W/m2
15:20 37.7 °F 32.7 °F 29.66 in North 8 mph 8 mph 82% 0.00 in 58 W/m2
15:25 37.6 °F 32.6 °F 29.67 in North 9 mph 9 mph 82% 0.00 in 70 W/m2
15:30 37.4 °F 32.7 °F 29.67 in NNE 10 mph 10 mph 83% 0.00 in 88 W/m2
15:35 37.4 °F 32.7 °F 29.68 in NW 8 mph 10 mph 83% 0.00 in 72 W/m2
15:40 37.2 °F 32.5 °F 29.69 in NW 7 mph 7 mph 83% 0.00 in 100 W/m2
15:45 37 °F 32.6 °F 29.69 in NW 7 mph 7 mph 84% 0.00 in 77 W/m2
15:50 36.9 °F 32.5 °F 29.70 in NNW 8 mph 11 mph 84% 0.00 in 72 W/m2
15:55 36.9 °F 32.2 °F 29.71 in NW 8 mph 11 mph 83% 0.00 in 93 W/m2
16:00 37 °F 32.3 °F 29.71 in WNW 8 mph 8 mph 83% 0.00 in 111 W/m2
16:05 36.9 °F 32.2 °F 29.72 in NW 7 mph 9 mph 83% 0.00 in 90 W/m2
16:10 36.7 °F 32 °F 29.73 in NW 8 mph 10 mph 83% 0.00 in 70 W/m2
16:15 36.6 °F 31.9 °F 29.74 in NNW 8 mph 10 mph 83% 0.00 in 39 W/m2
16:20 35.9 °F 31.2 °F 29.74 in NNW 7 mph 7 mph 83% 0.00 in 46 W/m2
16:25 35.2 °F 30.9 °F 29.75 in NNE 6 mph 7 mph 84% 0.00 in 84 W/m2
16:30 34.8 °F 30.8 °F 29.75 in NNW 6 mph 6 mph 85% 0.00 in 114 W/m2
16:35 34.7 °F 30.4 °F 29.76 in North 5 mph 6 mph 84% 0.00 in 97 W/m2
16:40 34.7 °F 30.1 °F 29.77 in NNE 6 mph 6 mph 83% 0.00 in 111 W/m2
16:45 34.7 °F 30.1 °F 29.78 in NE 7 mph 7 mph 83% 0.00 in 162 W/m2
16:50 34.9 °F 30 °F 29.78 in NW 6 mph 6 mph 82% 0.00 in 276 W/m2
16:55 35.2 °F 29.6 °F 29.79 in North 6 mph 10 mph 80% 0.00 in 318 W/m2
17:00 35.2 °F 29.6 °F 29.79 in North 7 mph 8 mph 80% 0.00 in 292 W/m2
17:05 35 °F 29.8 °F 29.80 in North 7 mph 8 mph 81% 0.00 in 123 W/m2
17:10 34.8 °F 29.6 °F 29.80 in North 6 mph 8 mph 81% 0.00 in 97 W/m2
17:15 34.6 °F 29.7 °F 29.81 in NNW 5 mph 8 mph 82% 0.00 in 63 W/m2
17:20 34.4 °F 29.5 °F 29.82 in North 5 mph 5 mph 82% 0.00 in 58 W/m2
17:25 34.3 °F 29.4 °F 29.83 in NNW 5 mph 5 mph 82% 0.00 in 67 W/m2
17:30 34.2 °F 29.6 °F 29.83 in North 5 mph 5 mph 83% 0.00 in 46 W/m2
17:35 34.1 °F 29.5 °F 29.84 in NNW 6 mph 6 mph 83% 0.00 in 39 W/m2
17:40 34.1 °F 29.2 °F 29.84 in NNW 6 mph 9 mph 82% 0.00 in 25 W/m2
17:45 34 °F 29.1 °F 29.85 in NNE 5 mph 10 mph 82% 0.00 in 21 W/m2
17:50 33.9 °F 29 °F 29.85 in NW 5 mph 5 mph 82% 0.00 in 16 W/m2
17:55 33.8 °F 28.9 °F 29.86 in NW 4 mph 5 mph 82% 0.00 in 12 W/m2
18:00 33.8 °F 28.9 °F 29.87 in North 4 mph 4 mph 82% 0.00 in 9 W/m2
18:05 33.7 °F 28.8 °F 29.87 in WNW 4 mph 5 mph 82% 0.00 in 7 W/m2
18:10 33.8 °F 28.9 °F 29.88 in NNW 4 mph 4 mph 82% 0.00 in 5 W/m2
18:15 33.7 °F 28.8 °F 29.88 in NW 4 mph 4 mph 82% 0.00 in 0 W/m2
18:20 33.7 °F 28.8 °F 29.89 in NNW 4 mph 4 mph 82% 0.00 in 0 W/m2
18:25 33.7 °F 28.8 °F 29.90 in NNW 3 mph 4 mph 82% 0.00 in 0 W/m2
18:30 33.7 °F 29.1 °F 29.90 in NNW 2 mph 2 mph 83% 0.00 in 0 W/m2
18:35 33.6 °F 29 °F 29.91 in NW 2 mph 8 mph 83% 0.00 in 0 W/m2
18:40 33.6 °F 28.7 °F 29.91 in NW 4 mph 9 mph 82% 0.00 in 0 W/m2
18:45 33.6 °F 28.7 °F 29.91 in NW 5 mph 9 mph 82% 0.00 in 0 W/m2
18:50 33.7 °F 28.2 °F 29.92 in NW 6 mph 6 mph 80% 0.00 in 0 W/m2
18:55 33.7 °F 28.5 °F 29.92 in NNW 5 mph 6 mph 81% 0.00 in 0 W/m2
19:00 33.8 °F 28.6 °F 29.93 in NW 4 mph 4 mph 81% 0.00 in 0 W/m2
19:05 33.7 °F 28.5 °F 29.94 in NW 3 mph 4 mph 81% 0.00 in 0 W/m2
19:10 33.7 °F 28.8 °F 29.94 in NNW 2 mph 2 mph 82% 0.00 in 0 W/m2
19:15 33.7 °F 28.8 °F 29.94 in NW 2 mph 3 mph 82% 0.00 in 0 W/m2
19:45 33.2 °F 28.3 °F 29.97 in NW 3 mph 3 mph 82% 0.00 in 0 W/m2
19:50 33.1 °F 28.2 °F 29.97 in NNW 3 mph 6 mph 82% 0.00 in 0 W/m2
19:55 33.1 °F 28.2 °F 29.98 in North 3 mph 3 mph 82% 0.00 in 0 W/m2
20:00 33 °F 28.1 °F 29.98 in NW 3 mph 4 mph 82% 0.00 in 0 W/m2
20:05 33 °F 28.1 °F 29.98 in NW 4 mph 4 mph 82% 0.00 in 0 W/m2
20:10 32.9 °F 27.7 °F 29.99 in NNW 4 mph 4 mph 81% 0.00 in 0 W/m2
20:15 32.9 °F 27.7 °F 29.99 in NW 4 mph 4 mph 81% 0.00 in 0 W/m2
20:20 32.8 °F 27.6 °F 29.99 in North 4 mph 6 mph 81% 0.00 in 0 W/m2
20:25 32.9 °F 27.7 °F 30.00 in NW 5 mph 6 mph 81% 0.00 in 0 W/m2
20:30 32.9 °F 27.4 °F 30.00 in NNW 5 mph 5 mph 80% 0.00 in 0 W/m2
20:35 32.9 °F 27.4 °F 30.00 in NW 4 mph 5 mph 80% 0.00 in 0 W/m2
20:40 32.8 °F 27.3 °F 30.00 in NW 3 mph 3 mph 80% 0.00 in 0 W/m2
20:45 32.8 °F 27.3 °F 30.01 in NW 3 mph 3 mph 80% 0.00 in 0 W/m2
20:50 32.7 °F 27.2 °F 30.01 in WNW 3 mph 3 mph 80% 0.00 in 0 W/m2
20:55 32.6 °F 27.1 °F 30.02 in WNW 3 mph 6 mph 80% 0.00 in 0 W/m2
21:00 32.5 °F 27.3 °F 30.02 in WNW 4 mph 4 mph 81% 0.00 in 0 W/m2
21:05 32.4 °F 27.2 °F 30.02 in North 4 mph 4 mph 81% 0.00 in 0 W/m2
21:10 32.4 °F 27.2 °F 30.03 in West 4 mph 4 mph 81% 0.00 in 0 W/m2
21:15 32.5 °F 27 °F 30.03 in NW 4 mph 9 mph 80% 0.00 in 0 W/m2
21:20 32.4 °F 26.9 °F 30.03 in WNW 4 mph 4 mph 80% 0.00 in 0 W/m2
21:25 32.3 °F 26.8 °F 30.04 in NNW 4 mph 4 mph 80% 0.00 in 0 W/m2
21:30 32.3 °F 26.8 °F 30.04 in NW 3 mph 3 mph 80% 0.00 in 0 W/m2
21:35 32.2 °F 26.7 °F 30.04 in NW 4 mph 8 mph 80% 0.00 in 0 W/m2
21:40 32.2 °F 26.7 °F 30.05 in WNW 4 mph 4 mph 80% 0.00 in 0 W/m2
21:45 32.1 °F 26.6 °F 30.05 in NW 4 mph 4 mph 80% 0.00 in 0 W/m2
21:50 32 °F 26.5 °F 30.06 in West 4 mph 6 mph 80% 0.00 in 0 W/m2
21:55 31.8 °F 26.3 °F 30.06 in WNW 5 mph 7 mph 80% 0.00 in 0 W/m2
22:00 31.7 °F 26.2 °F 30.06 in NW 5 mph 5 mph 80% 0.00 in 0 W/m2
22:05 31.6 °F 26.4 °F 30.06 in WNW 4 mph 5 mph 81% 0.00 in 0 W/m2
22:10 31.4 °F 26.2 °F 30.07 in West 4 mph 4 mph 81% 0.00 in 0 W/m2
22:15 31.3 °F 26.1 °F 30.07 in WNW 3 mph 4 mph 81% 0.00 in 0 W/m2
22:20 31.2 °F 26 °F 30.07 in WNW 4 mph 5 mph 81% 0.00 in 0 W/m2
22:25 31.1 °F 26.2 °F 30.08 in WNW 5 mph 10 mph 82% 0.00 in 0 W/m2
22:30 31.2 °F 26.3 °F 30.08 in NNW 6 mph 6 mph 82% 0.00 in 0 W/m2
22:35 31.3 °F 26.4 °F 30.08 in NW 5 mph 6 mph 82% 0.00 in 0 W/m2
22:40 31.3 °F 25.8 °F 30.08 in NNW 6 mph 6 mph 80% 0.00 in 0 W/m2
22:45 31.2 °F 25.7 °F 30.09 in NNW 7 mph 7 mph 80% 0.00 in 0 W/m2
22:50 31 °F 25.6 °F 30.09 in WNW 7 mph 7 mph 80% 0.00 in 0 W/m2
22:55 30.7 °F 25 °F 30.09 in West 7 mph 7 mph 79% 0.00 in 0 W/m2
23:00 30.1 °F 24.1 °F 30.10 in WNW 7 mph 7 mph 78% 0.00 in 0 W/m2
23:05 29.6 °F 23.3 °F 30.10 in NW 7 mph 8 mph 77% 0.00 in 0 W/m2
23:10 29.2 °F 22.9 °F 30.11 in NNW 8 mph 11 mph 77% 0.00 in 0 W/m2
23:15 29 °F 23 °F 30.11 in NW 8 mph 11 mph 78% 0.00 in 0 W/m2
23:20 28.7 °F 22.7 °F 30.12 in NW 7 mph 7 mph 78% 0.00 in 0 W/m2
23:25 28.3 °F 22.3 °F 30.12 in NNW 7 mph 10 mph 78% 0.00 in 0 W/m2
23:30 28.1 °F 22.1 °F 30.12 in NW 7 mph 7 mph 78% 0.00 in 0 W/m2
23:35 27.9 °F 21.9 °F 30.13 in NW 7 mph 7 mph 78% 0.00 in 0 W/m2
23:40 27.6 °F 21.6 °F 30.13 in NW 6 mph 10 mph 78% 0.00 in 0 W/m2
23:45 27.4 °F 21.7 °F 30.13 in NW 5 mph 10 mph 79% 0.00 in 0 W/m2
23:50 27.3 °F 21.6 °F 30.13 in NNW 5 mph 5 mph 79% 0.00 in 0 W/m2
23:55 27.1 °F 21.2 °F 30.13 in NW 4 mph 5 mph 78% 0.00 in 0 W/m2
Sand Point, Michigan, USA
Compliments of Weather Underground - 2 mb